createdAt,value
2023-12-29T00:00:46.373Z,127.15
2023-12-29T00:01:49.678Z,129.07
2023-12-29T00:02:52.513Z,129.48
2023-12-29T00:03:56.007Z,127.58
2023-12-29T00:04:58.348Z,128.90
2023-12-29T00:06:04.485Z,132.43
2023-12-29T00:07:06.690Z,133.37
2023-12-29T00:08:10.123Z,133.97
2023-12-29T00:09:13.658Z,132.27
2023-12-29T00:10:17.044Z,129.72
2023-12-29T00:11:20.578Z,132.17
2023-12-29T00:12:25.335Z,130.43
2023-12-29T00:13:27.530Z,128.52
2023-12-29T00:14:29.784Z,132.83
2023-12-29T00:15:33.112Z,132.50
2023-12-29T00:16:35.447Z,131.95
2023-12-29T00:17:41.131Z,139.55
2023-12-29T00:18:43.720Z,141.13
2023-12-29T00:19:47.149Z,143.95
2023-12-29T00:20:50.318Z,147.68
2023-12-29T00:22:09.043Z,147.88
2023-12-29T00:23:11.301Z,143.80
2023-12-29T00:24:14.554Z,144.12
2023-12-29T00:25:16.984Z,142.75
2023-12-29T00:26:20.299Z,142.58
2023-12-29T00:27:23.871Z,136.73
2023-12-29T00:28:27.132Z,137.53
2023-12-29T00:29:33.991Z,139.65
2023-12-29T00:30:51.865Z,140.92
2023-12-29T00:32:00.059Z,143.12
2023-12-29T00:33:03.343Z,144.30
2023-12-29T00:34:05.686Z,138.05
2023-12-29T00:35:09.782Z,140.18
2023-12-29T00:36:16.135Z,140.43
2023-12-29T00:37:19.423Z,144.03
2023-12-29T00:38:21.700Z,146.20
2023-12-29T00:39:29.963Z,142.52
2023-12-29T00:40:32.439Z,145.90
2023-12-29T00:41:35.607Z,145.62
2023-12-29T00:42:39.729Z,145.20
2023-12-29T00:43:43.006Z,143.80
2023-12-29T00:44:45.385Z,144.58
2023-12-29T00:45:47.678Z,142.35
2023-12-29T00:46:50.897Z,139.82
2023-12-29T00:47:53.200Z,139.58
2023-12-29T00:48:56.472Z,140.22
2023-12-29T00:49:58.750Z,140.00
2023-12-29T00:51:03.885Z,137.10
2023-12-29T00:52:06.656Z,138.13
2023-12-29T00:53:09.894Z,139.92
2023-12-29T00:54:12.237Z,141.77
2023-12-29T00:55:16.161Z,140.05
2023-12-29T00:56:18.387Z,141.68
2023-12-29T00:57:21.746Z,138.50
2023-12-29T00:58:25.433Z,138.58
2023-12-29T00:59:28.715Z,135.87
2023-12-29T01:00:31.088Z,138.38
2023-12-29T01:01:36.369Z,136.33
2023-12-29T01:02:39.154Z,139.75
2023-12-29T01:03:42.546Z,135.90
2023-12-29T01:04:45.026Z,137.38
2023-12-29T01:05:48.356Z,136.50
2023-12-29T01:06:50.629Z,135.95
2023-12-29T01:07:53.869Z,137.17
2023-12-29T01:08:56.166Z,136.32
2023-12-29T01:09:59.443Z,134.40
2023-12-29T01:11:01.770Z,135.43
2023-12-29T01:12:05.517Z,137.93
2023-12-29T01:13:07.729Z,137.63
2023-12-29T01:14:12.342Z,133.40
2023-12-29T01:15:14.810Z,131.48
2023-12-29T01:16:18.177Z,130.82
2023-12-29T01:17:22.083Z,132.78
2023-12-29T01:18:25.411Z,124.03
2023-12-29T01:19:27.669Z,116.75
2023-12-29T01:20:31.071Z,114.83
2023-12-29T01:21:35.796Z,115.95
2023-12-29T01:22:39.211Z,111.52
2023-12-29T01:23:41.514Z,112.28
2023-12-29T01:24:46.465Z,118.23
2023-12-29T01:25:48.935Z,116.93
2023-12-29T01:26:52.175Z,112.38
2023-12-29T01:27:54.400Z,106.22
2023-12-29T01:28:57.651Z,109.57
2023-12-29T01:30:01.525Z,109.72
2023-12-29T01:31:06.245Z,113.62
2023-12-29T01:32:09.426Z,108.88
2023-12-29T01:33:12.891Z,108.42
2023-12-29T01:34:15.445Z,107.90
2023-12-29T01:35:20.307Z,100.37
2023-12-29T01:36:25.376Z,100.72
2023-12-29T01:37:29.056Z,96.55
2023-12-29T01:38:32.113Z,95.70
2023-12-29T01:39:36.118Z,96.00
2023-12-29T01:40:44.951Z,91.45
2023-12-29T01:41:48.205Z,82.75
2023-12-29T01:42:50.487Z,86.13
2023-12-29T01:44:19.413Z,88.73
2023-12-29T01:45:25.417Z,84.18
2023-12-29T01:46:30.228Z,83.62
2023-12-29T01:47:33.142Z,82.28
2023-12-29T01:48:36.417Z,80.72
2023-12-29T01:49:39.363Z,78.68
2023-12-29T01:50:42.889Z,72.13
2023-12-29T01:51:45.542Z,68.10
2023-12-29T01:52:50.782Z,62.55
2023-12-29T01:53:54.001Z,60.98
2023-12-29T01:54:57.334Z,64.73
2023-12-29T01:56:00.735Z,64.93
2023-12-29T01:57:04.951Z,61.37
2023-12-29T01:58:08.141Z,57.50
2023-12-29T01:59:15.197Z,57.57
2023-12-29T02:00:24.480Z,57.13
2023-12-29T02:01:27.667Z,57.25
2023-12-29T02:02:30.828Z,58.08
2023-12-29T02:03:33.126Z,58.37
2023-12-29T02:04:38.151Z,58.72
2023-12-29T02:05:41.134Z,60.65
2023-12-29T02:06:44.526Z,60.68
2023-12-29T02:07:46.864Z,60.62
2023-12-29T02:08:50.149Z,61.27
2023-12-29T02:09:53.306Z,58.28
2023-12-29T02:10:57.648Z,60.05
2023-12-29T02:11:59.898Z,61.28
2023-12-29T02:13:03.247Z,61.03
2023-12-29T02:14:05.965Z,69.95
2023-12-29T02:15:10.404Z,72.53
2023-12-29T02:16:20.323Z,74.47
2023-12-29T02:17:26.417Z,75.80
2023-12-29T02:18:32.037Z,75.37
2023-12-29T02:19:41.573Z,75.62
2023-12-29T02:20:44.444Z,75.47
2023-12-29T02:21:48.533Z,75.63
2023-12-29T02:22:50.861Z,77.47
2023-12-29T02:23:54.096Z,76.30
2023-12-29T02:24:57.798Z,75.72
2023-12-29T02:26:05.244Z,76.70
2023-12-29T02:27:14.304Z,75.63
2023-12-29T02:28:23.338Z,76.05
2023-12-29T02:29:27.488Z,74.63
2023-12-29T02:30:36.623Z,72.67
2023-12-29T02:31:42.225Z,75.45
2023-12-29T02:32:48.794Z,76.62
2023-12-29T02:33:53.858Z,74.33
2023-12-29T02:34:58.721Z,73.97
2023-12-29T02:36:02.492Z,73.10
2023-12-29T02:37:06.280Z,74.32
2023-12-29T02:38:08.668Z,74.42
2023-12-29T02:39:12.712Z,74.58
2023-12-29T02:40:17.195Z,75.28
2023-12-29T02:41:20.547Z,75.92
2023-12-29T02:42:23.302Z,73.67
2023-12-29T02:43:26.588Z,72.50
2023-12-29T02:44:28.776Z,72.47
2023-12-29T02:45:32.336Z,78.68
2023-12-29T02:46:34.485Z,79.23
2023-12-29T02:47:36.790Z,75.83
2023-12-29T02:48:40.098Z,73.00
2023-12-29T02:49:42.455Z,75.20
2023-12-29T02:50:46.193Z,78.90
2023-12-29T02:51:49.261Z,80.72
2023-12-29T02:52:52.670Z,78.47
2023-12-29T02:53:54.964Z,75.98
2023-12-29T02:54:58.190Z,77.35
2023-12-29T02:56:01.947Z,77.62
2023-12-29T02:57:05.581Z,80.43
2023-12-29T02:58:07.794Z,83.10
2023-12-29T02:59:10.214Z,82.65
2023-12-29T03:00:14.228Z,85.48
2023-12-29T03:01:16.542Z,83.20
2023-12-29T03:02:18.901Z,86.72
2023-12-29T03:03:22.262Z,112.38
2023-12-29T03:04:24.571Z,125.48
2023-12-29T03:05:28.030Z,132.37
2023-12-29T03:06:30.435Z,122.43
2023-12-29T03:07:33.706Z,116.63
2023-12-29T03:08:35.854Z,108.87
2023-12-29T03:09:39.469Z,108.78
2023-12-29T03:10:41.780Z,97.87
2023-12-29T03:11:46.433Z,91.23
2023-12-29T03:12:48.778Z,92.32
2023-12-29T03:13:50.961Z,89.48
2023-12-29T03:14:54.302Z,85.30
2023-12-29T03:15:56.616Z,86.55
2023-12-29T03:17:00.028Z,83.58
2023-12-29T03:18:02.545Z,85.10
2023-12-29T03:19:05.972Z,86.47
2023-12-29T03:20:09.486Z,86.77
2023-12-29T03:21:12.774Z,88.80
2023-12-29T03:22:15.144Z,87.93
2023-12-29T03:23:17.419Z,91.03
2023-12-29T03:24:20.633Z,93.37
2023-12-29T03:25:23.053Z,95.45
2023-12-29T03:26:26.240Z,101.20
2023-12-29T03:27:29.814Z,104.52
2023-12-29T03:28:33.026Z,106.73
2023-12-29T03:29:35.416Z,109.08
2023-12-29T03:30:38.700Z,102.52
2023-12-29T03:31:41.163Z,101.50
2023-12-29T03:32:44.408Z,105.05
2023-12-29T03:33:46.767Z,115.43
2023-12-29T03:34:50.142Z,116.50
2023-12-29T03:35:52.436Z,116.28
2023-12-29T03:36:55.623Z,113.60
2023-12-29T03:37:58.124Z,116.23
2023-12-29T03:39:01.462Z,115.73
2023-12-29T03:40:04.093Z,114.28
2023-12-29T03:41:07.371Z,116.70
2023-12-29T03:42:09.672Z,114.53
2023-12-29T03:43:14.364Z,111.72
2023-12-29T03:44:16.595Z,111.83
2023-12-29T03:45:19.747Z,112.15
2023-12-29T03:46:22.652Z,112.32
2023-12-29T03:47:24.965Z,111.85
2023-12-29T03:48:28.288Z,115.62
2023-12-29T03:49:30.735Z,116.58
2023-12-29T03:50:33.984Z,116.40
2023-12-29T03:51:36.272Z,112.77
2023-12-29T03:52:38.440Z,109.25
2023-12-29T03:53:41.791Z,107.37
2023-12-29T03:54:44.029Z,104.93
2023-12-29T03:55:47.339Z,108.45
2023-12-29T03:56:49.579Z,110.75
2023-12-29T03:57:51.802Z,111.95
2023-12-29T03:58:56.426Z,106.75
2023-12-29T03:59:58.705Z,106.33
2023-12-29T04:01:02.020Z,101.55
2023-12-29T04:02:04.575Z,102.30
2023-12-29T04:03:07.760Z,107.88
2023-12-29T04:04:10.188Z,108.08
2023-12-29T04:05:13.417Z,107.95
2023-12-29T04:06:15.832Z,106.20
2023-12-29T04:07:19.091Z,105.40
2023-12-29T04:08:21.319Z,105.02
2023-12-29T04:09:23.582Z,104.87
2023-12-29T04:10:26.936Z,103.48
2023-12-29T04:11:29.187Z,101.78
2023-12-29T04:12:32.414Z,99.77
2023-12-29T04:13:34.831Z,99.12
2023-12-29T04:14:39.423Z,99.30
2023-12-29T04:15:41.967Z,101.20
2023-12-29T04:16:45.353Z,100.82
2023-12-29T04:17:47.789Z,97.05
2023-12-29T04:18:51.386Z,99.00
2023-12-29T04:19:54.208Z,98.32
2023-12-29T04:20:56.475Z,96.50
2023-12-29T04:21:59.682Z,94.18
2023-12-29T04:23:01.887Z,96.20
2023-12-29T04:24:05.449Z,97.32
2023-12-29T04:25:08.584Z,97.30
2023-12-29T04:26:11.990Z,98.52
2023-12-29T04:27:15.261Z,98.02
2023-12-29T04:28:18.477Z,98.18
2023-12-29T04:29:20.720Z,96.25
2023-12-29T04:30:25.331Z,96.78
2023-12-29T04:31:27.587Z,97.07
2023-12-29T04:32:30.886Z,99.20
2023-12-29T04:33:33.243Z,96.95
2023-12-29T04:34:36.559Z,97.57
2023-12-29T04:35:38.892Z,99.92
2023-12-29T04:36:42.210Z,99.68
2023-12-29T04:37:45.902Z,99.30
2023-12-29T04:38:49.043Z,97.88
2023-12-29T04:39:51.240Z,99.03
2023-12-29T04:40:54.798Z,99.95
2023-12-29T04:41:57.058Z,97.98
2023-12-29T04:43:00.331Z,96.63
2023-12-29T04:44:02.578Z,97.40
2023-12-29T04:45:05.872Z,100.03
2023-12-29T04:46:10.469Z,100.05
2023-12-29T04:47:12.762Z,110.37
2023-12-29T04:48:15.906Z,114.77
2023-12-29T04:49:18.293Z,116.27
2023-12-29T04:50:20.668Z,104.97
2023-12-29T04:51:23.811Z,102.95
2023-12-29T04:52:25.979Z,103.82
2023-12-29T04:53:29.163Z,102.50
2023-12-29T04:54:31.435Z,105.08
2023-12-29T04:55:33.663Z,108.57
2023-12-29T04:56:36.820Z,113.23
2023-12-29T04:57:39.192Z,118.80
2023-12-29T04:58:42.471Z,124.83
2023-12-29T04:59:44.659Z,123.73
2023-12-29T05:00:47.983Z,128.68
2023-12-29T05:01:51.786Z,137.58
2023-12-29T05:02:55.072Z,135.87
2023-12-29T05:03:57.417Z,136.57
2023-12-29T05:05:00.833Z,135.28
2023-12-29T05:06:03.146Z,136.15
2023-12-29T05:07:07.523Z,133.57
2023-12-29T05:08:10.334Z,133.15
2023-12-29T05:09:13.572Z,133.57
2023-12-29T05:10:16.042Z,132.42
2023-12-29T05:11:19.444Z,127.92
2023-12-29T05:12:21.640Z,124.70
2023-12-29T05:13:24.904Z,120.63
2023-12-29T05:14:27.157Z,120.42
2023-12-29T05:15:30.379Z,116.97
2023-12-29T05:16:32.654Z,117.03
2023-12-29T05:17:37.277Z,121.12
2023-12-29T05:18:39.790Z,122.03
2023-12-29T05:19:43.141Z,119.35
2023-12-29T05:20:45.366Z,116.53
2023-12-29T05:21:50.911Z,112.02
2023-12-29T05:22:53.118Z,109.03
2023-12-29T05:23:56.313Z,107.42
2023-12-29T05:25:01.144Z,106.08
2023-12-29T05:26:04.359Z,106.72
2023-12-29T05:27:06.622Z,104.05
2023-12-29T05:28:09.853Z,104.12
2023-12-29T05:29:12.193Z,104.47
2023-12-29T05:30:17.005Z,104.33
2023-12-29T05:31:19.329Z,106.22
2023-12-29T05:32:22.725Z,106.77
2023-12-29T05:33:26.349Z,106.43
2023-12-29T05:34:29.716Z,105.17
2023-12-29T05:35:32.073Z,107.50
2023-12-29T05:36:37.352Z,106.43
2023-12-29T05:37:39.600Z,106.48
2023-12-29T05:38:43.240Z,102.90
2023-12-29T05:39:45.813Z,103.32
2023-12-29T05:40:49.054Z,103.53
2023-12-29T05:41:51.265Z,105.30
2023-12-29T05:42:54.475Z,105.32
2023-12-29T05:43:58.992Z,104.78
2023-12-29T05:45:02.240Z,103.08
2023-12-29T05:46:10.953Z,104.83
2023-12-29T05:47:14.571Z,106.40
2023-12-29T05:48:16.943Z,105.03
2023-12-29T05:49:21.480Z,103.13
2023-12-29T05:50:23.754Z,102.75
2023-12-29T05:51:26.970Z,105.33
2023-12-29T05:52:29.898Z,104.17
2023-12-29T05:53:33.127Z,105.98
2023-12-29T05:54:35.938Z,104.13
2023-12-29T05:55:38.279Z,103.62
2023-12-29T05:56:41.461Z,103.40
2023-12-29T05:57:43.726Z,105.02
2023-12-29T05:58:46.981Z,107.08
2023-12-29T05:59:49.165Z,107.50
2023-12-29T06:00:51.585Z,107.55
2023-12-29T06:01:54.980Z,107.35
2023-12-29T06:02:57.315Z,107.18
2023-12-29T06:03:59.538Z,104.68
2023-12-29T06:05:04.192Z,105.42
2023-12-29T06:06:06.686Z,106.52
2023-12-29T06:07:10.403Z,105.02
2023-12-29T06:08:12.690Z,106.42
2023-12-29T06:09:15.880Z,109.88
2023-12-29T06:10:18.171Z,107.15
2023-12-29T06:11:22.026Z,107.63
2023-12-29T06:12:24.334Z,107.20
2023-12-29T06:13:27.609Z,108.63
2023-12-29T06:14:29.924Z,109.30
2023-12-29T06:15:33.294Z,108.25
2023-12-29T06:16:35.591Z,108.47
2023-12-29T06:17:38.870Z,108.53
2023-12-29T06:18:41.239Z,108.97
2023-12-29T06:19:44.525Z,106.97
2023-12-29T06:20:48.236Z,110.87
2023-12-29T06:21:51.528Z,112.62
2023-12-29T06:22:53.803Z,111.30
2023-12-29T06:23:57.101Z,112.93
2023-12-29T06:24:59.367Z,114.55
2023-12-29T06:26:01.583Z,116.37
2023-12-29T06:27:05.109Z,117.05
2023-12-29T06:28:07.824Z,114.85
2023-12-29T06:29:10.437Z,112.18
2023-12-29T06:30:14.465Z,111.00
2023-12-29T06:31:18.715Z,112.05
2023-12-29T06:32:22.379Z,113.45
2023-12-29T06:33:24.762Z,114.68
2023-12-29T06:34:28.166Z,118.90
2023-12-29T06:35:30.486Z,115.72
2023-12-29T06:36:35.129Z,112.52
2023-12-29T06:37:38.612Z,114.58
2023-12-29T06:38:41.872Z,114.47
2023-12-29T06:39:44.268Z,111.78
2023-12-29T06:40:46.622Z,111.45
2023-12-29T06:41:49.781Z,111.57
2023-12-29T06:42:52.014Z,110.37
2023-12-29T06:43:55.270Z,106.73
2023-12-29T06:44:57.653Z,107.65
2023-12-29T06:46:00.899Z,107.55
2023-12-29T06:47:06.088Z,105.68
2023-12-29T06:48:09.735Z,105.50
2023-12-29T06:49:12.476Z,107.33
2023-12-29T06:50:15.128Z,104.45
2023-12-29T06:51:19.756Z,103.78
2023-12-29T06:52:23.489Z,102.58
2023-12-29T06:53:26.696Z,100.83
2023-12-29T06:54:28.997Z,99.92
2023-12-29T06:55:32.227Z,99.65
2023-12-29T06:56:34.454Z,98.83
2023-12-29T06:57:36.907Z,98.68
2023-12-29T06:58:40.194Z,93.90
2023-12-29T06:59:42.510Z,87.10
2023-12-29T07:00:46.208Z,85.18
2023-12-29T07:01:48.637Z,85.55
2023-12-29T07:02:51.975Z,85.65
2023-12-29T07:03:54.284Z,87.45
2023-12-29T07:04:57.553Z,85.12
2023-12-29T07:06:02.142Z,84.17
2023-12-29T07:07:05.598Z,84.87
2023-12-29T07:08:09.821Z,82.25
2023-12-29T07:09:13.165Z,81.77
2023-12-29T07:10:15.820Z,82.80
2023-12-29T07:11:19.157Z,84.53
2023-12-29T07:12:21.638Z,88.12
2023-12-29T07:13:24.879Z,88.57
2023-12-29T07:14:27.505Z,89.57
2023-12-29T07:15:30.660Z,90.08
2023-12-29T07:16:32.937Z,89.00
2023-12-29T07:17:36.202Z,90.40
2023-12-29T07:18:38.701Z,94.18
2023-12-29T07:19:42.013Z,94.23
2023-12-29T07:20:44.372Z,91.93
2023-12-29T07:21:47.552Z,87.97
2023-12-29T07:22:49.793Z,88.05
2023-12-29T07:23:54.385Z,88.30
2023-12-29T07:24:56.684Z,89.22
2023-12-29T07:25:59.968Z,90.92
2023-12-29T07:27:02.282Z,90.82
2023-12-29T07:28:05.991Z,90.60
2023-12-29T07:29:08.349Z,89.65
2023-12-29T07:30:12.766Z,90.83
2023-12-29T07:31:15.147Z,93.30
2023-12-29T07:32:18.436Z,90.73
2023-12-29T07:33:20.749Z,92.00
2023-12-29T07:34:23.158Z,93.43
2023-12-29T07:35:26.498Z,91.60
2023-12-29T07:36:28.839Z,90.08
2023-12-29T07:37:32.130Z,92.78
2023-12-29T07:38:34.274Z,93.00
2023-12-29T07:39:39.907Z,91.33
2023-12-29T07:40:42.119Z,93.08
2023-12-29T07:41:45.675Z,94.95
2023-12-29T07:42:51.511Z,93.92
2023-12-29T07:43:55.012Z,92.53
2023-12-29T07:44:57.687Z,93.10
2023-12-29T07:46:00.891Z,94.38
2023-12-29T07:47:03.273Z,95.48
2023-12-29T07:48:10.605Z,94.87
2023-12-29T07:49:13.502Z,97.35
2023-12-29T07:50:16.968Z,97.20
2023-12-29T07:51:19.971Z,99.42
2023-12-29T07:52:23.692Z,118.32
2023-12-29T07:53:26.019Z,107.80
2023-12-29T07:54:29.266Z,105.73
2023-12-29T07:55:33.129Z,99.98
2023-12-29T07:56:37.991Z,98.07
2023-12-29T07:57:40.393Z,97.83
2023-12-29T07:58:46.510Z,102.27
2023-12-29T07:59:49.435Z,105.02
2023-12-29T08:00:52.669Z,108.07
2023-12-29T08:01:55.032Z,108.98
2023-12-29T08:03:00.477Z,109.62
2023-12-29T08:04:02.983Z,110.30
2023-12-29T08:05:06.597Z,113.15
2023-12-29T08:06:08.850Z,126.63
2023-12-29T08:08:14.260Z,144.72
2023-12-29T08:09:16.588Z,131.75
2023-12-29T08:10:19.922Z,122.62
2023-12-29T08:11:23.497Z,124.62
2023-12-29T08:12:26.770Z,125.58
2023-12-29T08:13:29.851Z,127.30
2023-12-29T08:14:33.469Z,130.23
2023-12-29T08:15:35.823Z,132.70
2023-12-29T08:16:40.946Z,129.45
2023-12-29T08:17:43.379Z,128.87
2023-12-29T08:18:46.737Z,134.68
2023-12-29T08:19:49.206Z,135.45
2023-12-29T08:20:52.446Z,137.77
2023-12-29T08:21:54.673Z,137.23
2023-12-29T08:22:58.010Z,138.80
2023-12-29T08:24:00.242Z,129.88
2023-12-29T08:25:03.591Z,103.02
2023-12-29T08:26:06.043Z,106.85
2023-12-29T08:27:11.346Z,119.92
2023-12-29T08:28:13.604Z,114.32
2023-12-29T08:29:17.416Z,117.05
2023-12-29T08:30:19.715Z,107.73
2023-12-29T08:31:23.571Z,106.03
2023-12-29T08:32:26.917Z,93.32
2023-12-29T08:33:29.196Z,95.50
2023-12-29T08:34:32.728Z,100.45
2023-12-29T08:35:35.139Z,93.70
2023-12-29T08:36:38.650Z,90.60
2023-12-29T08:37:41.042Z,90.52
2023-12-29T08:38:44.283Z,89.62
2023-12-29T08:39:47.072Z,88.75
2023-12-29T08:40:50.504Z,90.78
2023-12-29T08:41:52.980Z,84.65
2023-12-29T08:42:57.567Z,82.03
2023-12-29T08:43:59.848Z,80.82
2023-12-29T08:45:02.093Z,78.80
2023-12-29T08:46:05.429Z,84.85
2023-12-29T08:47:09.432Z,80.60
2023-12-29T08:48:12.832Z,73.72
2023-12-29T08:49:15.185Z,66.95
2023-12-29T08:50:18.516Z,66.40
2023-12-29T08:51:20.820Z,68.95
2023-12-29T08:52:24.100Z,63.95
2023-12-29T08:53:26.511Z,64.17
2023-12-29T08:54:29.889Z,63.32
2023-12-29T08:55:32.496Z,58.85
2023-12-29T08:56:35.725Z,57.28
2023-12-29T08:57:38.014Z,56.73
2023-12-29T08:58:42.830Z,54.28
2023-12-29T08:59:45.084Z,56.10
2023-12-29T09:00:48.957Z,54.08
2023-12-29T09:01:51.295Z,57.15
2023-12-29T09:02:54.620Z,59.08
2023-12-29T09:03:56.874Z,57.83
2023-12-29T09:05:00.203Z,59.93
2023-12-29T09:06:03.003Z,60.42
2023-12-29T09:07:07.318Z,61.15
2023-12-29T09:08:09.725Z,64.13
2023-12-29T09:09:14.055Z,67.83
2023-12-29T09:10:16.582Z,69.17
2023-12-29T09:11:19.900Z,66.57
2023-12-29T09:12:22.197Z,67.65
2023-12-29T09:13:27.417Z,59.97
2023-12-29T09:14:33.641Z,61.10
2023-12-29T09:15:36.931Z,60.93
2023-12-29T09:16:40.292Z,60.68
2023-12-29T09:17:44.638Z,57.47
2023-12-29T09:18:47.278Z,56.48
2023-12-29T09:19:57.279Z,53.68
2023-12-29T09:21:06.076Z,52.23
2023-12-29T09:22:09.422Z,51.47
2023-12-29T09:23:11.867Z,49.85
2023-12-29T09:24:15.108Z,50.93
2023-12-29T09:25:17.456Z,49.78
2023-12-29T09:26:20.902Z,48.78
2023-12-29T09:27:23.159Z,46.05
2023-12-29T09:28:26.413Z,44.22
2023-12-29T09:29:30.062Z,45.45
2023-12-29T09:30:33.243Z,44.97
2023-12-29T09:31:35.621Z,47.57
2023-12-29T09:32:38.874Z,43.42
2023-12-29T09:33:41.200Z,38.63
2023-12-29T09:34:44.666Z,40.15
2023-12-29T09:35:47.576Z,34.57
2023-12-29T09:36:50.767Z,32.97
2023-12-29T09:37:53.170Z,36.18
2023-12-29T09:38:56.498Z,33.85
2023-12-29T09:39:58.888Z,32.23
2023-12-29T09:41:07.211Z,31.75
2023-12-29T09:42:10.797Z,31.03
2023-12-29T09:43:15.289Z,28.33
2023-12-29T09:44:17.968Z,27.37
2023-12-29T09:45:26.273Z,25.63
2023-12-29T09:46:32.722Z,26.07
2023-12-29T09:47:40.413Z,27.07
2023-12-29T09:48:47.299Z,26.47
2023-12-29T09:49:50.328Z,25.58
2023-12-29T09:50:54.099Z,24.03
2023-12-29T09:51:58.839Z,23.32
2023-12-29T09:53:03.489Z,24.40
2023-12-29T09:54:07.167Z,24.05
2023-12-29T09:55:11.089Z,24.33
2023-12-29T09:56:15.787Z,25.53
2023-12-29T09:57:19.335Z,25.05
2023-12-29T09:58:24.429Z,25.68
2023-12-29T09:59:28.252Z,23.97
2023-12-29T10:00:33.571Z,24.07
2023-12-29T10:01:36.393Z,22.77
2023-12-29T10:02:40.224Z,23.73
2023-12-29T10:03:42.559Z,22.30
2023-12-29T10:04:45.923Z,19.80
2023-12-29T10:05:52.331Z,19.53
2023-12-29T10:06:57.989Z,21.20
2023-12-29T10:08:04.565Z,20.33
2023-12-29T10:09:11.820Z,19.77
2023-12-29T10:10:17.141Z,21.20
2023-12-29T10:11:23.264Z,19.85
2023-12-29T10:12:26.355Z,19.58
2023-12-29T10:13:30.745Z,18.72
2023-12-29T10:14:39.013Z,18.28
2023-12-29T10:15:50.140Z,16.95
2023-12-29T10:16:57.578Z,16.95
2023-12-29T10:18:09.669Z,17.12
2023-12-29T10:19:19.491Z,16.30
2023-12-29T10:20:33.195Z,16.17
2023-12-29T10:21:42.243Z,16.83
2023-12-29T10:22:53.876Z,15.87
2023-12-29T10:24:05.788Z,15.78
2023-12-29T10:25:11.284Z,16.80
2023-12-29T10:26:14.142Z,15.80
2023-12-29T10:27:17.367Z,16.93
2023-12-29T10:28:19.763Z,16.42
2023-12-29T10:29:23.461Z,16.67
2023-12-29T10:30:31.659Z,16.35
2023-12-29T10:31:39.686Z,16.17
2023-12-29T10:32:42.138Z,14.70
2023-12-29T10:33:45.667Z,15.32
2023-12-29T10:34:48.204Z,15.68
2023-12-29T10:36:00.650Z,14.80
2023-12-29T10:37:08.093Z,15.35
2023-12-29T10:38:12.709Z,14.93
2023-12-29T10:39:16.348Z,14.67
2023-12-29T10:40:20.618Z,14.62
2023-12-29T10:41:24.328Z,14.62
2023-12-29T10:42:27.459Z,14.55
2023-12-29T10:43:29.807Z,15.40
2023-12-29T10:44:33.069Z,16.10
2023-12-29T10:45:35.516Z,15.25
2023-12-29T10:46:40.198Z,13.65
2023-12-29T10:47:44.931Z,14.77
2023-12-29T10:48:48.291Z,14.42
2023-12-29T10:50:00.229Z,14.70
2023-12-29T10:51:05.186Z,14.98
2023-12-29T10:52:14.552Z,14.68
2023-12-29T10:53:19.001Z,14.87
2023-12-29T10:54:24.538Z,14.52
2023-12-29T10:55:27.274Z,13.57
2023-12-29T10:56:31.067Z,13.25
2023-12-29T10:57:33.686Z,14.97
2023-12-29T10:58:38.389Z,14.65
2023-12-29T10:59:40.829Z,14.97
2023-12-29T11:00:44.033Z,14.60
2023-12-29T11:01:50.508Z,15.32
2023-12-29T11:02:56.331Z,15.80
2023-12-29T11:03:59.954Z,15.68
2023-12-29T11:05:08.342Z,15.02
2023-12-29T11:06:10.696Z,14.82
2023-12-29T11:07:13.518Z,14.78
2023-12-29T11:08:20.576Z,14.70
2023-12-29T11:09:29.911Z,14.78
2023-12-29T11:10:34.049Z,15.33
2023-12-29T11:11:37.275Z,15.57
2023-12-29T11:12:41.028Z,15.58
2023-12-29T11:13:43.405Z,15.98
2023-12-29T11:14:49.420Z,15.18
2023-12-29T11:15:53.791Z,15.92
2023-12-29T11:16:59.845Z,20.98
2023-12-29T11:18:05.229Z,27.05
2023-12-29T11:19:10.683Z,20.28
2023-12-29T11:20:14.693Z,15.72
2023-12-29T11:21:18.357Z,17.37
2023-12-29T11:22:22.648Z,18.90
2023-12-29T11:23:25.058Z,18.90
2023-12-29T11:24:35.288Z,19.83
2023-12-29T11:25:41.405Z,16.87
2023-12-29T11:26:46.178Z,15.40
2023-12-29T11:27:50.308Z,14.37
2023-12-29T11:28:56.237Z,14.78
2023-12-29T11:30:01.060Z,16.10
2023-12-29T11:31:04.531Z,17.13
2023-12-29T11:32:13.994Z,16.88
2023-12-29T11:33:23.515Z,16.28
2023-12-29T11:34:27.944Z,16.47
2023-12-29T11:35:37.556Z,15.52
2023-12-29T11:36:45.229Z,15.92
2023-12-29T11:38:13.456Z,16.83
2023-12-29T11:39:22.338Z,14.93
2023-12-29T11:40:29.907Z,13.90
2023-12-29T11:41:42.343Z,14.95
2023-12-29T11:42:47.517Z,15.15
2023-12-29T11:43:58.620Z,15.60
2023-12-29T11:45:26.493Z,15.90
2023-12-29T11:46:39.175Z,16.93
2023-12-29T11:47:44.169Z,15.80
2023-12-29T11:48:57.225Z,16.13
2023-12-29T11:50:01.835Z,15.52
2023-12-29T11:51:29.320Z,14.85
2023-12-29T11:52:35.743Z,15.15
2023-12-29T11:53:38.072Z,15.30
2023-12-29T11:54:41.305Z,14.80
2023-12-29T11:55:44.269Z,17.00
2023-12-29T11:56:47.586Z,16.65
2023-12-29T11:57:49.857Z,15.97
2023-12-29T11:58:52.264Z,16.35
2023-12-29T11:59:55.554Z,15.88
2023-12-29T12:00:58.172Z,15.33
2023-12-29T12:02:02.840Z,16.62
2023-12-29T12:03:16.541Z,18.93
2023-12-29T12:04:39.270Z,18.10
2023-12-29T12:05:50.339Z,18.00
2023-12-29T12:06:52.811Z,16.78
2023-12-29T12:08:00.001Z,16.13
2023-12-29T12:09:19.473Z,16.63
2023-12-29T12:10:34.294Z,15.80
2023-12-29T12:11:44.997Z,16.00
2023-12-29T12:12:50.526Z,16.08
2023-12-29T12:13:56.240Z,17.02
2023-12-29T12:14:58.639Z,17.07
2023-12-29T12:16:02.128Z,16.77
2023-12-29T12:17:04.422Z,16.20
2023-12-29T12:18:10.599Z,15.73
2023-12-29T12:19:15.210Z,16.70
2023-12-29T12:20:18.696Z,15.87
2023-12-29T12:21:21.058Z,15.93
2023-12-29T12:22:25.525Z,16.48
2023-12-29T12:23:34.517Z,17.45
2023-12-29T12:24:38.028Z,16.38
2023-12-29T12:25:42.104Z,16.67
2023-12-29T12:26:44.833Z,15.80
2023-12-29T12:27:48.643Z,16.67
2023-12-29T12:28:53.711Z,17.05
2023-12-29T12:29:58.814Z,15.88
2023-12-29T12:31:08.372Z,15.40
2023-12-29T12:32:12.338Z,15.40
2023-12-29T12:33:15.405Z,14.45
2023-12-29T12:34:22.239Z,14.88
2023-12-29T12:35:25.735Z,15.92
2023-12-29T12:36:30.904Z,14.18
2023-12-29T12:37:33.402Z,14.65
2023-12-29T12:38:36.697Z,14.97
2023-12-29T12:39:42.525Z,14.55
2023-12-29T12:40:45.990Z,14.35
2023-12-29T12:41:48.289Z,14.70
2023-12-29T12:42:51.638Z,14.35
2023-12-29T12:44:01.322Z,14.08
2023-12-29T12:45:08.411Z,14.30
2023-12-29T12:46:11.286Z,13.42
2023-12-29T12:47:19.771Z,14.37
2023-12-29T12:48:25.175Z,13.80
2023-12-29T12:49:31.724Z,13.77
2023-12-29T12:50:34.240Z,14.68
2023-12-29T12:51:37.683Z,15.37
2023-12-29T12:52:41.343Z,15.17
2023-12-29T12:53:45.762Z,15.80
2023-12-29T12:54:49.455Z,16.68
2023-12-29T12:55:53.905Z,16.17
2023-12-29T12:56:56.465Z,15.97
2023-12-29T12:58:00.018Z,17.42
2023-12-29T12:59:03.716Z,16.82
2023-12-29T13:00:09.132Z,16.28
2023-12-29T13:01:11.891Z,15.67
2023-12-29T13:02:16.235Z,13.78
2023-12-29T13:03:19.335Z,14.47
2023-12-29T13:04:23.295Z,14.20
2023-12-29T13:05:27.112Z,14.03
2023-12-29T13:06:30.558Z,16.22
2023-12-29T13:07:33.097Z,14.83
2023-12-29T13:08:40.735Z,16.37
2023-12-29T13:09:46.892Z,16.87
2023-12-29T13:10:50.389Z,18.00
2023-12-29T13:12:08.921Z,17.47
2023-12-29T13:13:12.400Z,18.18
2023-12-29T13:14:21.969Z,17.77
2023-12-29T13:15:25.655Z,17.78
2023-12-29T13:16:32.116Z,15.05
2023-12-29T13:17:34.472Z,14.67
2023-12-29T13:18:38.043Z,16.42
2023-12-29T13:19:42.005Z,17.63
2023-12-29T13:20:47.868Z,18.67
2023-12-29T13:21:55.089Z,17.67
2023-12-29T13:22:57.425Z,15.98
2023-12-29T13:24:05.812Z,15.52
2023-12-29T13:25:09.292Z,14.93
2023-12-29T13:26:13.918Z,14.50
2023-12-29T13:27:16.942Z,15.00
2023-12-29T13:28:20.399Z,16.13
2023-12-29T13:29:26.090Z,16.83
2023-12-29T13:30:29.601Z,15.27
2023-12-29T13:31:32.297Z,15.27
2023-12-29T13:32:40.006Z,14.77
2023-12-29T13:33:50.911Z,14.07
2023-12-29T13:35:03.541Z,12.95
2023-12-29T13:36:14.284Z,13.52